Ischua, New York
Current Conditions -  °F | °C
As of 2:15 PM on Friday 28 Nov 2014 (Local Time) from KOLE Reporting Station
Overcast Overcast  
Wind Chill: 13°   Ceiling: 2700
Heat Index: 21°   Visibility: 10mi
Dew Point: 12°   Wind: 7mph
Humidity: 68%   Direction: 270°W
Pressure: 30.11"   Gusts: NA
Location:  42.1993°N, 78.412°W
Report Text: KOLE 281915Z AUTO 27006KT 10SM SCT020 OVC027 M06/M11 A3011 RMK AO2
Loading
Personal Weather Stations






























Interactive Weather Map New forecast layout! Learn more

10-Day Weather Forecast

Advertisements
Track Severe Weather on mobile